sensor_id;sensor_type;location;lat;lon;timestamp;P1;durP1;ratioP1;P2;durP2;ratioP2
35223;SDS011;21367;51.930;8.112;2023-10-19T00:04:32;26.80;;;11.65;;
35223;SDS011;21367;51.930;8.112;2023-10-19T00:09:36;25.60;;;12.35;;
35223;SDS011;21367;51.930;8.112;2023-10-19T00:14:40;26.10;;;12.48;;
35223;SDS011;21367;51.930;8.112;2023-10-19T00:19:46;28.60;;;13.60;;
35223;SDS011;21367;51.930;8.112;2023-10-19T00:25:21;25.77;;;13.15;;
35223;SDS011;21367;51.930;8.112;2023-10-19T00:30:26;29.38;;;13.73;;
35223;SDS011;21367;51.930;8.112;2023-10-19T00:35:35;27.05;;;13.18;;
35223;SDS011;21367;51.930;8.112;2023-10-19T00:40:50;29.38;;;14.23;;
35223;SDS011;21367;51.930;8.112;2023-10-19T00:45:59;28.67;;;14.60;;
35223;SDS011;21367;51.930;8.112;2023-10-19T00:51:18;30.50;;;13.53;;
35223;SDS011;21367;51.930;8.112;2023-10-19T00:56:42;29.77;;;14.20;;
35223;SDS011;21367;51.930;8.112;2023-10-19T01:01:52;31.75;;;13.60;;
35223;SDS011;21367;51.930;8.112;2023-10-19T01:07:34;25.95;;;13.13;;
35223;SDS011;21367;51.930;8.112;2023-10-19T01:12:41;26.02;;;13.55;;
35223;SDS011;21367;51.930;8.112;2023-10-19T01:18:48;25.77;;;13.18;;
35223;SDS011;21367;51.930;8.112;2023-10-19T01:24:56;33.45;;;14.45;;
35223;SDS011;21367;51.930;8.112;2023-10-19T01:30:13;29.23;;;13.65;;
35223;SDS011;21367;51.930;8.112;2023-10-19T01:36:22;29.52;;;15.45;;
35223;SDS011;21367;51.930;8.112;2023-10-19T01:41:40;36.88;;;17.38;;
35223;SDS011;21367;51.930;8.112;2023-10-19T01:47:11;30.55;;;16.33;;
35223;SDS011;21367;51.930;8.112;2023-10-19T01:57:22;30.02;;;15.18;;
35223;SDS011;21367;51.930;8.112;2023-10-19T02:08:28;32.75;;;15.10;;
35223;SDS011;21367;51.930;8.112;2023-10-19T02:14:35;30.45;;;14.70;;
35223;SDS011;21367;51.930;8.112;2023-10-19T02:20:35;35.13;;;16.30;;
35223;SDS011;21367;51.930;8.112;2023-10-19T02:25:40;31.53;;;15.80;;
35223;SDS011;21367;51.930;8.112;2023-10-19T02:30:48;38.25;;;18.75;;
35223;SDS011;21367;51.930;8.112;2023-10-19T02:35:51;35.13;;;17.00;;
35223;SDS011;21367;51.930;8.112;2023-10-19T02:40:57;25.08;;;14.50;;
35223;SDS011;21367;51.930;8.112;2023-10-19T02:46:03;37.03;;;17.05;;
35223;SDS011;21367;51.930;8.112;2023-10-19T02:51:08;35.72;;;18.10;;
35223;SDS011;21367;51.930;8.112;2023-10-19T02:56:12;31.02;;;16.25;;
35223;SDS011;21367;51.930;8.112;2023-10-19T03:01:20;39.50;;;17.50;;
35223;SDS011;21367;51.930;8.112;2023-10-19T03:06:30;28.60;;;16.33;;
35223;SDS011;21367;51.930;8.112;2023-10-19T03:11:35;34.13;;;17.50;;
35223;SDS011;21367;51.930;8.112;2023-10-19T03:16:43;30.07;;;16.00;;
35223;SDS011;21367;51.930;8.112;2023-10-19T03:21:47;36.55;;;17.02;;
35223;SDS011;21367;51.930;8.112;2023-10-19T03:26:51;35.85;;;16.15;;
35223;SDS011;21367;51.930;8.112;2023-10-19T03:32:02;28.27;;;15.02;;
35223;SDS011;21367;51.930;8.112;2023-10-19T03:37:06;28.02;;;13.82;;
35223;SDS011;21367;51.930;8.112;2023-10-19T03:42:15;27.73;;;15.02;;
35223;SDS011;21367;51.930;8.112;2023-10-19T03:47:24;27.63;;;13.43;;
35223;SDS011;21367;51.930;8.112;2023-10-19T03:52:37;29.33;;;14.55;;
35223;SDS011;21367;51.930;8.112;2023-10-19T03:57:42;23.38;;;13.40;;
35223;SDS011;21367;51.930;8.112;2023-10-19T04:02:49;26.25;;;13.40;;
35223;SDS011;21367;51.930;8.112;2023-10-19T04:07:53;23.75;;;13.30;;
35223;SDS011;21367;51.930;8.112;2023-10-19T04:12:58;29.65;;;14.70;;
35223;SDS011;21367;51.930;8.112;2023-10-19T04:18:04;23.38;;;14.05;;
35223;SDS011;21367;51.930;8.112;2023-10-19T04:23:12;24.10;;;13.60;;
35223;SDS011;21367;51.930;8.112;2023-10-19T04:28:16;21.55;;;12.18;;
35223;SDS011;21367;51.930;8.112;2023-10-19T04:33:28;23.52;;;12.45;;
35223;SDS011;21367;51.930;8.112;2023-10-19T04:38:32;22.73;;;11.77;;
35223;SDS011;21367;51.930;8.112;2023-10-19T04:43:36;23.10;;;11.43;;
35223;SDS011;21367;51.930;8.112;2023-10-19T04:48:46;20.90;;;10.50;;
35223;SDS011;21367;51.930;8.112;2023-10-19T04:53:50;18.27;;;9.93;;
35223;SDS011;21367;51.930;8.112;2023-10-19T04:58:55;17.90;;;10.15;;
35223;SDS011;21367;51.930;8.112;2023-10-19T05:04:01;16.95;;;10.45;;
35223;SDS011;21367;51.930;8.112;2023-10-19T05:09:05;18.13;;;10.30;;
35223;SDS011;21367;51.930;8.112;2023-10-19T05:14:08;18.30;;;9.88;;
35223;SDS011;21367;51.930;8.112;2023-10-19T05:19:16;16.43;;;10.27;;
35223;SDS011;21367;51.930;8.112;2023-10-19T05:24:20;15.43;;;8.90;;
35223;SDS011;21367;51.930;8.112;2023-10-19T05:29:24;21.75;;;9.00;;
35223;SDS011;21367;51.930;8.112;2023-10-19T05:34:30;13.52;;;9.10;;
35223;SDS011;21367;51.930;8.112;2023-10-19T05:39:36;14.93;;;9.27;;
35223;SDS011;21367;51.930;8.112;2023-10-19T05:44:39;21.27;;;9.52;;
35223;SDS011;21367;51.930;8.112;2023-10-19T05:49:46;16.95;;;8.48;;
35223;SDS011;21367;51.930;8.112;2023-10-19T05:54:49;19.20;;;9.23;;
35223;SDS011;21367;51.930;8.112;2023-10-19T05:59:54;14.85;;;8.27;;
35223;SDS011;21367;51.930;8.112;2023-10-19T06:05:00;18.80;;;9.43;;
35223;SDS011;21367;51.930;8.112;2023-10-19T06:10:06;16.08;;;8.60;;
35223;SDS011;21367;51.930;8.112;2023-10-19T06:15:11;16.77;;;9.63;;
35223;SDS011;21367;51.930;8.112;2023-10-19T06:20:18;16.80;;;9.45;;
35223;SDS011;21367;51.930;8.112;2023-10-19T06:25:28;16.98;;;9.35;;
35223;SDS011;21367;51.930;8.112;2023-10-19T06:30:31;17.90;;;9.32;;
35223;SDS011;21367;51.930;8.112;2023-10-19T06:35:38;18.75;;;9.38;;
35223;SDS011;21367;51.930;8.112;2023-10-19T06:40:41;17.13;;;8.65;;
35223;SDS011;21367;51.930;8.112;2023-10-19T06:45:45;20.10;;;8.52;;
35223;SDS011;21367;51.930;8.112;2023-10-19T06:50:51;22.05;;;10.57;;
35223;SDS011;21367;51.930;8.112;2023-10-19T06:55:55;16.10;;;10.10;;
35223;SDS011;21367;51.930;8.112;2023-10-19T07:00:59;17.63;;;10.35;;
35223;SDS011;21367;51.930;8.112;2023-10-19T07:06:10;16.45;;;9.88;;
35223;SDS011;21367;51.930;8.112;2023-10-19T07:11:15;18.55;;;10.65;;
35223;SDS011;21367;51.930;8.112;2023-10-19T07:16:19;15.65;;;9.18;;
35223;SDS011;21367;51.930;8.112;2023-10-19T07:21:25;22.05;;;11.27;;
35223;SDS011;21367;51.930;8.112;2023-10-19T07:26:32;20.70;;;10.93;;
35223;SDS011;21367;51.930;8.112;2023-10-19T07:31:43;19.25;;;9.88;;
35223;SDS011;21367;51.930;8.112;2023-10-19T07:36:49;13.88;;;8.38;;
35223;SDS011;21367;51.930;8.112;2023-10-19T07:41:54;14.02;;;8.07;;
35223;SDS011;21367;51.930;8.112;2023-10-19T07:46:58;12.80;;;7.90;;
35223;SDS011;21367;51.930;8.112;2023-10-19T07:52:04;14.45;;;8.75;;
35223;SDS011;21367;51.930;8.112;2023-10-19T07:57:10;14.70;;;7.97;;
35223;SDS011;21367;51.930;8.112;2023-10-19T08:02:14;12.85;;;7.20;;
35223;SDS011;21367;51.930;8.112;2023-10-19T08:07:20;14.80;;;7.03;;
35223;SDS011;21367;51.930;8.112;2023-10-19T08:12:26;9.85;;;5.97;;
35223;SDS011;21367;51.930;8.112;2023-10-19T08:17:31;13.85;;;5.80;;
35223;SDS011;21367;51.930;8.112;2023-10-19T08:22:37;17.38;;;5.63;;
35223;SDS011;21367;51.930;8.112;2023-10-19T08:27:41;11.77;;;5.32;;
35223;SDS011;21367;51.930;8.112;2023-10-19T08:32:45;14.45;;;5.00;;
35223;SDS011;21367;51.930;8.112;2023-10-19T08:37:52;8.70;;;4.85;;
35223;SDS011;21367;51.930;8.112;2023-10-19T08:42:57;14.35;;;4.05;;
35223;SDS011;21367;51.930;8.112;2023-10-19T08:48:01;15.13;;;4.15;;
35223;SDS011;21367;51.930;8.112;2023-10-19T08:53:08;18.17;;;4.18;;
35223;SDS011;21367;51.930;8.112;2023-10-19T08:58:14;14.15;;;4.60;;
35223;SDS011;21367;51.930;8.112;2023-10-19T09:03:19;11.07;;;5.33;;
35223;SDS011;21367;51.930;8.112;2023-10-19T09:08:27;20.77;;;6.95;;
35223;SDS011;21367;51.930;8.112;2023-10-19T09:13:48;12.68;;;6.07;;
35223;SDS011;21367;51.930;8.112;2023-10-19T09:18:52;9.15;;;4.60;;
35223;SDS011;21367;51.930;8.112;2023-10-19T09:23:59;10.70;;;3.70;;
35223;SDS011;21367;51.930;8.112;2023-10-19T09:34:09;11.18;;;3.58;;
35223;SDS011;21367;51.930;8.112;2023-10-19T09:39:15;10.45;;;4.00;;
35223;SDS011;21367;51.930;8.112;2023-10-19T09:44:19;10.45;;;4.05;;
35223;SDS011;21367;51.930;8.112;2023-10-19T09:49:27;20.90;;;4.22;;
35223;SDS011;21367;51.930;8.112;2023-10-19T09:54:45;16.25;;;3.80;;
35223;SDS011;21367;51.930;8.112;2023-10-19T09:59:56;25.67;;;4.20;;
35223;SDS011;21367;51.930;8.112;2023-10-19T10:10:50;14.55;;;4.40;;
35223;SDS011;21367;51.930;8.112;2023-10-19T10:15:54;6.57;;;3.30;;
35223;SDS011;21367;51.930;8.112;2023-10-19T10:21:10;8.77;;;3.35;;
35223;SDS011;21367;51.930;8.112;2023-10-19T10:26:19;9.18;;;2.60;;
35223;SDS011;21367;51.930;8.112;2023-10-19T10:31:25;7.88;;;2.63;;
35223;SDS011;21367;51.930;8.112;2023-10-19T10:36:29;5.75;;;1.92;;
35223;SDS011;21367;51.930;8.112;2023-10-19T10:42:06;6.35;;;2.60;;
35223;SDS011;21367;51.930;8.112;2023-10-19T10:47:11;6.20;;;2.63;;
35223;SDS011;21367;51.930;8.112;2023-10-19T10:52:25;6.43;;;2.20;;
35223;SDS011;21367;51.930;8.112;2023-10-19T10:57:33;9.77;;;2.85;;
35223;SDS011;21367;51.930;8.112;2023-10-19T11:02:37;9.77;;;2.30;;
35223;SDS011;21367;51.930;8.112;2023-10-19T11:13:12;5.22;;;2.03;;
35223;SDS011;21367;51.930;8.112;2023-10-19T11:18:30;11.40;;;3.13;;
35223;SDS011;21367;51.930;8.112;2023-10-19T11:23:37;7.05;;;2.88;;
35223;SDS011;21367;51.930;8.112;2023-10-19T11:28:44;9.63;;;2.70;;
35223;SDS011;21367;51.930;8.112;2023-10-19T11:33:52;17.02;;;3.10;;
35223;SDS011;21367;51.930;8.112;2023-10-19T11:38:56;8.20;;;2.53;;
35223;SDS011;21367;51.930;8.112;2023-10-19T11:44:02;8.77;;;2.53;;
35223;SDS011;21367;51.930;8.112;2023-10-19T11:49:06;9.77;;;2.22;;
35223;SDS011;21367;51.930;8.112;2023-10-19T11:54:10;10.82;;;2.10;;
35223;SDS011;21367;51.930;8.112;2023-10-19T11:59:16;6.72;;;2.17;;
35223;SDS011;21367;51.930;8.112;2023-10-19T12:04:20;13.52;;;2.40;;
35223;SDS011;21367;51.930;8.112;2023-10-19T12:09:23;9.60;;;2.08;;
35223;SDS011;21367;51.930;8.112;2023-10-19T12:14:31;9.95;;;2.40;;
35223;SDS011;21367;51.930;8.112;2023-10-19T12:19:34;7.45;;;2.20;;
35223;SDS011;21367;51.930;8.112;2023-10-19T12:24:38;7.38;;;2.22;;
35223;SDS011;21367;51.930;8.112;2023-10-19T12:29:45;13.85;;;2.45;;
35223;SDS011;21367;51.930;8.112;2023-10-19T12:34:50;8.40;;;2.60;;
35223;SDS011;21367;51.930;8.112;2023-10-19T12:39:58;8.60;;;2.60;;
35223;SDS011;21367;51.930;8.112;2023-10-19T12:45:09;13.85;;;2.60;;
35223;SDS011;21367;51.930;8.112;2023-10-19T12:50:17;12.05;;;2.85;;
35223;SDS011;21367;51.930;8.112;2023-10-19T12:55:22;6.25;;;1.95;;
35223;SDS011;21367;51.930;8.112;2023-10-19T13:00:29;7.95;;;1.98;;
35223;SDS011;21367;51.930;8.112;2023-10-19T13:05:36;18.92;;;2.13;;
35223;SDS011;21367;51.930;8.112;2023-10-19T13:10:41;11.15;;;2.22;;
35223;SDS011;21367;51.930;8.112;2023-10-19T13:15:48;11.10;;;2.17;;
35223;SDS011;21367;51.930;8.112;2023-10-19T13:20:53;9.25;;;1.73;;
35223;SDS011;21367;51.930;8.112;2023-10-19T13:25:57;12.20;;;1.88;;
35223;SDS011;21367;51.930;8.112;2023-10-19T13:31:11;8.00;;;2.15;;
35223;SDS011;21367;51.930;8.112;2023-10-19T13:36:15;10.82;;;2.22;;
35223;SDS011;21367;51.930;8.112;2023-10-19T13:41:20;12.27;;;2.40;;
35223;SDS011;21367;51.930;8.112;2023-10-19T13:46:26;11.80;;;2.60;;
35223;SDS011;21367;51.930;8.112;2023-10-19T13:51:29;11.48;;;2.67;;
35223;SDS011;21367;51.930;8.112;2023-10-19T13:56:33;7.05;;;2.63;;
35223;SDS011;21367;51.930;8.112;2023-10-19T14:01:40;13.55;;;2.83;;
35223;SDS011;21367;51.930;8.112;2023-10-19T14:06:43;10.02;;;2.38;;
35223;SDS011;21367;51.930;8.112;2023-10-19T14:11:49;12.95;;;2.00;;
35223;SDS011;21367;51.930;8.112;2023-10-19T14:16:56;14.82;;;4.05;;
35223;SDS011;21367;51.930;8.112;2023-10-19T14:22:00;8.70;;;2.67;;
35223;SDS011;21367;51.930;8.112;2023-10-19T14:27:08;15.35;;;2.72;;
35223;SDS011;21367;51.930;8.112;2023-10-19T14:32:14;9.88;;;2.67;;
35223;SDS011;21367;51.930;8.112;2023-10-19T14:37:19;11.15;;;2.88;;
35223;SDS011;21367;51.930;8.112;2023-10-19T14:42:23;12.30;;;2.58;;
35223;SDS011;21367;51.930;8.112;2023-10-19T14:47:29;14.60;;;3.03;;
35223;SDS011;21367;51.930;8.112;2023-10-19T14:52:33;8.73;;;2.65;;
35223;SDS011;21367;51.930;8.112;2023-10-19T14:57:37;12.18;;;2.78;;
35223;SDS011;21367;51.930;8.112;2023-10-19T15:02:44;17.23;;;3.85;;
35223;SDS011;21367;51.930;8.112;2023-10-19T15:07:49;18.25;;;3.40;;
35223;SDS011;21367;51.930;8.112;2023-10-19T15:12:54;13.88;;;3.78;;
35223;SDS011;21367;51.930;8.112;2023-10-19T15:18:01;14.02;;;4.35;;
35223;SDS011;21367;51.930;8.112;2023-10-19T15:23:07;19.10;;;4.57;;
35223;SDS011;21367;51.930;8.112;2023-10-19T15:28:11;15.10;;;5.03;;
35223;SDS011;21367;51.930;8.112;2023-10-19T15:33:17;14.48;;;6.03;;
35223;SDS011;21367;51.930;8.112;2023-10-19T15:38:22;16.92;;;7.00;;
35223;SDS011;21367;51.930;8.112;2023-10-19T15:43:25;18.65;;;6.97;;
35223;SDS011;21367;51.930;8.112;2023-10-19T15:48:33;11.73;;;5.20;;
35223;SDS011;21367;51.930;8.112;2023-10-19T15:53:37;12.40;;;4.78;;
35223;SDS011;21367;51.930;8.112;2023-10-19T15:58:41;15.30;;;4.25;;
35223;SDS011;21367;51.930;8.112;2023-10-19T16:03:48;27.92;;;6.40;;
35223;SDS011;21367;51.930;8.112;2023-10-19T16:08:52;13.98;;;4.78;;
35223;SDS011;21367;51.930;8.112;2023-10-19T16:13:56;14.32;;;5.18;;
35223;SDS011;21367;51.930;8.112;2023-10-19T16:19:02;18.13;;;6.15;;
35223;SDS011;21367;51.930;8.112;2023-10-19T16:24:06;12.00;;;5.75;;
35223;SDS011;21367;51.930;8.112;2023-10-19T16:29:10;17.83;;;5.57;;
35223;SDS011;21367;51.930;8.112;2023-10-19T16:34:20;18.50;;;6.32;;
35223;SDS011;21367;51.930;8.112;2023-10-19T16:39:25;19.77;;;6.32;;
35223;SDS011;21367;51.930;8.112;2023-10-19T16:44:28;23.85;;;5.60;;
35223;SDS011;21367;51.930;8.112;2023-10-19T16:49:35;15.82;;;5.03;;
35223;SDS011;21367;51.930;8.112;2023-10-19T16:54:39;16.02;;;5.45;;
35223;SDS011;21367;51.930;8.112;2023-10-19T16:59:43;13.07;;;5.25;;
35223;SDS011;21367;51.930;8.112;2023-10-19T17:04:50;16.80;;;5.07;;
35223;SDS011;21367;51.930;8.112;2023-10-19T17:09:54;20.42;;;5.05;;
35223;SDS011;21367;51.930;8.112;2023-10-19T17:14:58;18.40;;;5.10;;
35223;SDS011;21367;51.930;8.112;2023-10-19T17:20:04;16.27;;;6.80;;
35223;SDS011;21367;51.930;8.112;2023-10-19T17:25:10;15.43;;;5.90;;
35223;SDS011;21367;51.930;8.112;2023-10-19T17:30:13;10.10;;;4.53;;
35223;SDS011;21367;51.930;8.112;2023-10-19T17:35:19;14.93;;;4.53;;
35223;SDS011;21367;51.930;8.112;2023-10-19T17:40:24;14.25;;;4.70;;
35223;SDS011;21367;51.930;8.112;2023-10-19T17:45:29;15.73;;;4.73;;
35223;SDS011;21367;51.930;8.112;2023-10-19T17:50:36;12.32;;;4.95;;
35223;SDS011;21367;51.930;8.112;2023-10-19T18:00:43;16.13;;;4.35;;
35223;SDS011;21367;51.930;8.112;2023-10-19T18:05:50;22.08;;;5.53;;
35223;SDS011;21367;51.930;8.112;2023-10-19T18:10:55;19.15;;;6.13;;
35223;SDS011;21367;51.930;8.112;2023-10-19T18:16:02;16.17;;;6.22;;
35223;SDS011;21367;51.930;8.112;2023-10-19T18:21:11;18.15;;;6.95;;
35223;SDS011;21367;51.930;8.112;2023-10-19T18:26:16;20.45;;;6.85;;
35223;SDS011;21367;51.930;8.112;2023-10-19T18:31:20;16.25;;;7.72;;
35223;SDS011;21367;51.930;8.112;2023-10-19T18:36:28;17.80;;;8.00;;
35223;SDS011;21367;51.930;8.112;2023-10-19T18:41:33;22.77;;;10.75;;
35223;SDS011;21367;51.930;8.112;2023-10-19T18:46:37;22.63;;;10.38;;
35223;SDS011;21367;51.930;8.112;2023-10-19T18:51:43;26.40;;;10.63;;
35223;SDS011;21367;51.930;8.112;2023-10-19T18:56:47;23.38;;;11.55;;
35223;SDS011;21367;51.930;8.112;2023-10-19T19:01:51;24.67;;;11.48;;
35223;SDS011;21367;51.930;8.112;2023-10-19T19:06:57;26.10;;;12.23;;
35223;SDS011;21367;51.930;8.112;2023-10-19T19:17:04;24.88;;;10.43;;
35223;SDS011;21367;51.930;8.112;2023-10-19T19:22:12;22.05;;;11.88;;
35223;SDS011;21367;51.930;8.112;2023-10-19T19:27:16;25.90;;;11.25;;
35223;SDS011;21367;51.930;8.112;2023-10-19T19:32:20;26.73;;;10.98;;
35223;SDS011;21367;51.930;8.112;2023-10-19T19:37:26;30.60;;;11.48;;
35223;SDS011;21367;51.930;8.112;2023-10-19T19:42:34;27.08;;;9.82;;
35223;SDS011;21367;51.930;8.112;2023-10-19T19:47:38;28.27;;;10.20;;
35223;SDS011;21367;51.930;8.112;2023-10-19T19:52:46;21.60;;;9.45;;
35223;SDS011;21367;51.930;8.112;2023-10-19T19:57:52;23.75;;;9.38;;
35223;SDS011;21367;51.930;8.112;2023-10-19T20:02:56;22.52;;;10.23;;
35223;SDS011;21367;51.930;8.112;2023-10-19T20:08:03;20.83;;;10.63;;
35223;SDS011;21367;51.930;8.112;2023-10-19T20:13:08;32.20;;;12.55;;
35223;SDS011;21367;51.930;8.112;2023-10-19T20:18:13;32.17;;;11.67;;
35223;SDS011;21367;51.930;8.112;2023-10-19T20:23:20;37.55;;;13.23;;
35223;SDS011;21367;51.930;8.112;2023-10-19T20:28:24;38.95;;;13.23;;
35223;SDS011;21367;51.930;8.112;2023-10-19T20:33:27;29.90;;;13.57;;
35223;SDS011;21367;51.930;8.112;2023-10-19T20:38:34;25.13;;;13.13;;
35223;SDS011;21367;51.930;8.112;2023-10-19T20:48:43;29.20;;;13.05;;
35223;SDS011;21367;51.930;8.112;2023-10-19T20:53:49;28.48;;;11.82;;
35223;SDS011;21367;51.930;8.112;2023-10-19T21:03:56;38.97;;;13.68;;
35223;SDS011;21367;51.930;8.112;2023-10-19T21:09:02;35.38;;;15.82;;
35223;SDS011;21367;51.930;8.112;2023-10-19T21:14:06;44.45;;;16.48;;
35223;SDS011;21367;51.930;8.112;2023-10-19T21:19:10;29.05;;;15.07;;
35223;SDS011;21367;51.930;8.112;2023-10-19T21:24:16;35.38;;;15.45;;
35223;SDS011;21367;51.930;8.112;2023-10-19T21:29:19;32.15;;;15.77;;
35223;SDS011;21367;51.930;8.112;2023-10-19T21:34:23;27.38;;;15.45;;
35223;SDS011;21367;51.930;8.112;2023-10-19T21:39:30;34.38;;;16.17;;
35223;SDS011;21367;51.930;8.112;2023-10-19T21:44:34;34.35;;;17.05;;
35223;SDS011;21367;51.930;8.112;2023-10-19T21:49:38;32.80;;;17.05;;
35223;SDS011;21367;51.930;8.112;2023-10-19T21:54:44;49.58;;;20.98;;
35223;SDS011;21367;51.930;8.112;2023-10-19T21:59:48;48.63;;;21.98;;
35223;SDS011;21367;51.930;8.112;2023-10-19T22:04:51;39.22;;;18.95;;
35223;SDS011;21367;51.930;8.112;2023-10-19T22:09:58;42.38;;;20.50;;
35223;SDS011;21367;51.930;8.112;2023-10-19T22:15:01;40.40;;;20.70;;
35223;SDS011;21367;51.930;8.112;2023-10-19T22:20:06;39.10;;;20.52;;
35223;SDS011;21367;51.930;8.112;2023-10-19T22:25:13;48.30;;;21.92;;
35223;SDS011;21367;51.930;8.112;2023-10-19T22:30:21;42.40;;;21.00;;
35223;SDS011;21367;51.930;8.112;2023-10-19T22:35:25;58.85;;;26.02;;
35223;SDS011;21367;51.930;8.112;2023-10-19T22:40:32;59.67;;;23.98;;
35223;SDS011;21367;51.930;8.112;2023-10-19T22:50:39;58.22;;;23.88;;
35223;SDS011;21367;51.930;8.112;2023-10-19T22:55:45;45.85;;;23.88;;
35223;SDS011;21367;51.930;8.112;2023-10-19T23:00:49;56.92;;;27.05;;
35223;SDS011;21367;51.930;8.112;2023-10-19T23:05:53;67.30;;;26.02;;
35223;SDS011;21367;51.930;8.112;2023-10-19T23:10:59;52.90;;;25.73;;
35223;SDS011;21367;51.930;8.112;2023-10-19T23:16:03;58.50;;;27.00;;
35223;SDS011;21367;51.930;8.112;2023-10-19T23:21:07;51.97;;;25.75;;
35223;SDS011;21367;51.930;8.112;2023-10-19T23:26:15;56.70;;;27.13;;
35223;SDS011;21367;51.930;8.112;2023-10-19T23:31:21;55.50;;;25.30;;
35223;SDS011;21367;51.930;8.112;2023-10-19T23:36:27;53.28;;;25.20;;
35223;SDS011;21367;51.930;8.112;2023-10-19T23:41:34;52.13;;;25.85;;
35223;SDS011;21367;51.930;8.112;2023-10-19T23:46:37;51.83;;;25.30;;
35223;SDS011;21367;51.930;8.112;2023-10-19T23:51:41;60.90;;;26.88;;
35223;SDS011;21367;51.930;8.112;2023-10-19T23:56:47;57.25;;;27.67;;
